sensor_id;sensor_type;location;lat;lon;timestamp;P1;durP1;ratioP1;P2;durP2;ratioP2
39074;SDS011;24826;52.070;20.970;2023-02-28T00:00:26;19.50;;;8.65;;
39074;SDS011;24826;52.070;20.970;2023-02-28T00:03:18;17.92;;;8.18;;
39074;SDS011;24826;52.070;20.970;2023-02-28T00:06:03;13.05;;;7.85;;
39074;SDS011;24826;52.070;20.970;2023-02-28T00:08:51;15.70;;;7.90;;
39074;SDS011;24826;52.070;20.970;2023-02-28T00:11:35;14.18;;;7.65;;
39074;SDS011;24826;52.070;20.970;2023-02-28T00:14:21;15.45;;;8.18;;
39074;SDS011;24826;52.070;20.970;2023-02-28T00:17:06;17.33;;;7.95;;
39074;SDS011;24826;52.070;20.970;2023-02-28T00:19:50;18.73;;;7.90;;
39074;SDS011;24826;52.070;20.970;2023-02-28T00:22:36;16.50;;;8.65;;
39074;SDS011;24826;52.070;20.970;2023-02-28T00:25:22;17.33;;;8.93;;
39074;SDS011;24826;52.070;20.970;2023-02-28T00:28:08;16.40;;;8.27;;
39074;SDS011;24826;52.070;20.970;2023-02-28T00:30:52;17.05;;;8.32;;
39074;SDS011;24826;52.070;20.970;2023-02-28T00:33:37;18.27;;;9.45;;
39074;SDS011;24826;52.070;20.970;2023-02-28T00:36:21;17.40;;;8.00;;
39074;SDS011;24826;52.070;20.970;2023-02-28T00:39:06;16.58;;;8.75;;
39074;SDS011;24826;52.070;20.970;2023-02-28T00:41:50;16.98;;;9.13;;
39074;SDS011;24826;52.070;20.970;2023-02-28T00:44:34;19.70;;;9.27;;
39074;SDS011;24826;52.070;20.970;2023-02-28T00:47:19;18.05;;;9.60;;
39074;SDS011;24826;52.070;20.970;2023-02-28T00:50:04;18.45;;;10.25;;
39074;SDS011;24826;52.070;20.970;2023-02-28T00:52:49;20.80;;;9.65;;
39074;SDS011;24826;52.070;20.970;2023-02-28T00:55:33;18.92;;;10.02;;
39074;SDS011;24826;52.070;20.970;2023-02-28T00:58:17;20.42;;;9.75;;
39074;SDS011;24826;52.070;20.970;2023-02-28T01:01:02;21.52;;;10.45;;
39074;SDS011;24826;52.070;20.970;2023-02-28T01:03:47;17.88;;;10.38;;
39074;SDS011;24826;52.070;20.970;2023-02-28T01:06:31;20.20;;;10.38;;
39074;SDS011;24826;52.070;20.970;2023-02-28T01:09:15;19.85;;;9.93;;
39074;SDS011;24826;52.070;20.970;2023-02-28T01:12:00;22.42;;;11.48;;
39074;SDS011;24826;52.070;20.970;2023-02-28T01:14:44;21.98;;;11.02;;
39074;SDS011;24826;52.070;20.970;2023-02-28T01:17:29;22.30;;;10.70;;
39074;SDS011;24826;52.070;20.970;2023-02-28T01:20:13;24.02;;;11.57;;
39074;SDS011;24826;52.070;20.970;2023-02-28T01:22:58;21.25;;;11.43;;
39074;SDS011;24826;52.070;20.970;2023-02-28T01:25:42;23.45;;;11.63;;
39074;SDS011;24826;52.070;20.970;2023-02-28T01:28:27;22.02;;;11.13;;
39074;SDS011;24826;52.070;20.970;2023-02-28T01:31:11;20.48;;;11.50;;
39074;SDS011;24826;52.070;20.970;2023-02-28T01:33:56;22.73;;;11.25;;
39074;SDS011;24826;52.070;20.970;2023-02-28T01:36:40;27.10;;;11.98;;
39074;SDS011;24826;52.070;20.970;2023-02-28T01:39:25;22.73;;;10.70;;
39074;SDS011;24826;52.070;20.970;2023-02-28T01:42:12;23.58;;;11.88;;
39074;SDS011;24826;52.070;20.970;2023-02-28T01:47:44;21.02;;;10.98;;
39074;SDS011;24826;52.070;20.970;2023-02-28T01:50:30;21.63;;;11.30;;
39074;SDS011;24826;52.070;20.970;2023-02-28T01:53:19;20.65;;;11.45;;
39074;SDS011;24826;52.070;20.970;2023-02-28T01:56:08;23.85;;;12.38;;
39074;SDS011;24826;52.070;20.970;2023-02-28T01:58:55;21.17;;;11.43;;
39074;SDS011;24826;52.070;20.970;2023-02-28T02:01:40;22.35;;;12.48;;
39074;SDS011;24826;52.070;20.970;2023-02-28T02:04:26;23.23;;;11.77;;
39074;SDS011;24826;52.070;20.970;2023-02-28T02:07:16;21.90;;;11.50;;
39074;SDS011;24826;52.070;20.970;2023-02-28T02:10:09;26.35;;;13.48;;
39074;SDS011;24826;52.070;20.970;2023-02-28T02:29:31;21.50;;;11.55;;
39074;SDS011;24826;52.070;20.970;2023-02-28T02:35:27;22.50;;;11.82;;
39074;SDS011;24826;52.070;20.970;2023-02-28T02:44:43;23.27;;;11.55;;
39074;SDS011;24826;52.070;20.970;2023-02-28T02:47:32;19.63;;;12.15;;
39074;SDS011;24826;52.070;20.970;2023-02-28T02:50:22;22.73;;;13.13;;
39074;SDS011;24826;52.070;20.970;2023-02-28T02:53:10;23.70;;;13.50;;
39074;SDS011;24826;52.070;20.970;2023-02-28T02:55:57;27.83;;;12.98;;
39074;SDS011;24826;52.070;20.970;2023-02-28T02:58:44;23.40;;;12.23;;
39074;SDS011;24826;52.070;20.970;2023-02-28T03:01:33;24.10;;;13.68;;
39074;SDS011;24826;52.070;20.970;2023-02-28T03:04:21;23.90;;;13.25;;
39074;SDS011;24826;52.070;20.970;2023-02-28T03:07:07;24.80;;;13.07;;
39074;SDS011;24826;52.070;20.970;2023-02-28T03:09:52;24.08;;;12.73;;
39074;SDS011;24826;52.070;20.970;2023-02-28T03:12:41;25.60;;;14.05;;
39074;SDS011;24826;52.070;20.970;2023-02-28T03:15:54;23.00;;;13.10;;
39074;SDS011;24826;52.070;20.970;2023-02-28T03:25:20;25.90;;;13.10;;
39074;SDS011;24826;52.070;20.970;2023-02-28T03:28:24;23.25;;;12.32;;
39074;SDS011;24826;52.070;20.970;2023-02-28T03:31:36;21.88;;;11.77;;
39074;SDS011;24826;52.070;20.970;2023-02-28T03:34:33;27.75;;;12.82;;
39074;SDS011;24826;52.070;20.970;2023-02-28T03:37:22;23.77;;;12.32;;
39074;SDS011;24826;52.070;20.970;2023-02-28T03:40:13;26.25;;;12.32;;
39074;SDS011;24826;52.070;20.970;2023-02-28T03:43:02;23.50;;;12.70;;
39074;SDS011;24826;52.070;20.970;2023-02-28T03:45:53;22.60;;;12.57;;
39074;SDS011;24826;52.070;20.970;2023-02-28T03:48:40;25.02;;;12.88;;
39074;SDS011;24826;52.070;20.970;2023-02-28T03:51:34;22.77;;;12.52;;
39074;SDS011;24826;52.070;20.970;2023-02-28T03:54:22;22.45;;;12.65;;
39074;SDS011;24826;52.070;20.970;2023-02-28T03:57:25;24.00;;;12.05;;
39074;SDS011;24826;52.070;20.970;2023-02-28T04:00:21;21.38;;;11.80;;
39074;SDS011;24826;52.070;20.970;2023-02-28T04:03:12;23.65;;;12.18;;
39074;SDS011;24826;52.070;20.970;2023-02-28T04:05:57;23.55;;;13.13;;
39074;SDS011;24826;52.070;20.970;2023-02-28T04:08:42;22.15;;;12.77;;
39074;SDS011;24826;52.070;20.970;2023-02-28T04:11:33;24.00;;;12.93;;
39074;SDS011;24826;52.070;20.970;2023-02-28T04:14:19;22.40;;;12.45;;
39074;SDS011;24826;52.070;20.970;2023-02-28T04:17:03;22.90;;;12.10;;
39074;SDS011;24826;52.070;20.970;2023-02-28T04:19:48;21.70;;;11.63;;
39074;SDS011;24826;52.070;20.970;2023-02-28T04:22:32;23.73;;;12.88;;
39074;SDS011;24826;52.070;20.970;2023-02-28T04:25:16;24.73;;;12.43;;
39074;SDS011;24826;52.070;20.970;2023-02-28T04:28:00;22.40;;;12.50;;
39074;SDS011;24826;52.070;20.970;2023-02-28T04:30:45;26.58;;;12.82;;
39074;SDS011;24826;52.070;20.970;2023-02-28T04:33:30;24.17;;;12.85;;
39074;SDS011;24826;52.070;20.970;2023-02-28T04:36:15;20.80;;;11.73;;
39074;SDS011;24826;52.070;20.970;2023-02-28T04:39:01;20.48;;;12.80;;
39074;SDS011;24826;52.070;20.970;2023-02-28T04:41:46;20.95;;;12.82;;
39074;SDS011;24826;52.070;20.970;2023-02-28T04:44:30;20.02;;;11.98;;
39074;SDS011;24826;52.070;20.970;2023-02-28T04:47:15;22.05;;;12.23;;
39074;SDS011;24826;52.070;20.970;2023-02-28T04:50:00;25.25;;;12.73;;
39074;SDS011;24826;52.070;20.970;2023-02-28T04:52:44;21.90;;;12.68;;
39074;SDS011;24826;52.070;20.970;2023-02-28T04:55:28;22.80;;;12.60;;
39074;SDS011;24826;52.070;20.970;2023-02-28T04:58:13;22.58;;;12.18;;
39074;SDS011;24826;52.070;20.970;2023-02-28T05:01:05;24.15;;;12.77;;
39074;SDS011;24826;52.070;20.970;2023-02-28T05:04:01;22.75;;;12.10;;
39074;SDS011;24826;52.070;20.970;2023-02-28T05:06:47;22.33;;;12.82;;
39074;SDS011;24826;52.070;20.970;2023-02-28T05:09:31;24.63;;;12.52;;
39074;SDS011;24826;52.070;20.970;2023-02-28T05:12:17;24.35;;;11.82;;
39074;SDS011;24826;52.070;20.970;2023-02-28T05:15:01;27.73;;;13.13;;
39074;SDS011;24826;52.070;20.970;2023-02-28T05:17:46;21.40;;;11.85;;
39074;SDS011;24826;52.070;20.970;2023-02-28T05:20:30;20.27;;;11.50;;
39074;SDS011;24826;52.070;20.970;2023-02-28T05:23:15;21.48;;;12.85;;
39074;SDS011;24826;52.070;20.970;2023-02-28T05:26:01;26.33;;;11.93;;
39074;SDS011;24826;52.070;20.970;2023-02-28T05:28:46;21.92;;;11.60;;
39074;SDS011;24826;52.070;20.970;2023-02-28T05:31:30;22.30;;;11.10;;
39074;SDS011;24826;52.070;20.970;2023-02-28T05:34:15;26.15;;;13.02;;
39074;SDS011;24826;52.070;20.970;2023-02-28T05:37:00;22.63;;;11.20;;
39074;SDS011;24826;52.070;20.970;2023-02-28T05:39:44;23.75;;;12.10;;
39074;SDS011;24826;52.070;20.970;2023-02-28T05:42:28;24.10;;;12.65;;
39074;SDS011;24826;52.070;20.970;2023-02-28T05:45:12;23.02;;;11.48;;
39074;SDS011;24826;52.070;20.970;2023-02-28T05:47:57;21.15;;;11.45;;
39074;SDS011;24826;52.070;20.970;2023-02-28T05:50:41;20.92;;;11.45;;
39074;SDS011;24826;52.070;20.970;2023-02-28T05:53:26;23.92;;;12.60;;
39074;SDS011;24826;52.070;20.970;2023-02-28T05:56:10;24.23;;;11.70;;
39074;SDS011;24826;52.070;20.970;2023-02-28T05:58:55;25.85;;;12.13;;
39074;SDS011;24826;52.070;20.970;2023-02-28T06:01:40;25.50;;;12.85;;
39074;SDS011;24826;52.070;20.970;2023-02-28T06:04:28;27.35;;;12.93;;
39074;SDS011;24826;52.070;20.970;2023-02-28T06:07:12;26.25;;;12.88;;
39074;SDS011;24826;52.070;20.970;2023-02-28T06:09:57;24.92;;;12.27;;
39074;SDS011;24826;52.070;20.970;2023-02-28T06:12:42;27.58;;;13.55;;
39074;SDS011;24826;52.070;20.970;2023-02-28T06:15:26;27.80;;;13.95;;
39074;SDS011;24826;52.070;20.970;2023-02-28T06:18:11;30.65;;;13.75;;
39074;SDS011;24826;52.070;20.970;2023-02-28T06:20:55;30.80;;;14.50;;
39074;SDS011;24826;52.070;20.970;2023-02-28T06:23:39;36.20;;;15.88;;
39074;SDS011;24826;52.070;20.970;2023-02-28T06:26:24;33.00;;;15.60;;
39074;SDS011;24826;52.070;20.970;2023-02-28T06:29:09;35.63;;;15.63;;
39074;SDS011;24826;52.070;20.970;2023-02-28T06:31:53;33.97;;;16.58;;
39074;SDS011;24826;52.070;20.970;2023-02-28T06:34:37;32.05;;;15.38;;
39074;SDS011;24826;52.070;20.970;2023-02-28T06:37:22;37.05;;;15.88;;
39074;SDS011;24826;52.070;20.970;2023-02-28T06:40:10;30.77;;;15.77;;
39074;SDS011;24826;52.070;20.970;2023-02-28T06:42:54;37.78;;;15.93;;
39074;SDS011;24826;52.070;20.970;2023-02-28T06:45:42;36.53;;;16.27;;
39074;SDS011;24826;52.070;20.970;2023-02-28T06:48:27;38.47;;;17.17;;
39074;SDS011;24826;52.070;20.970;2023-02-28T06:51:13;42.95;;;19.95;;
39074;SDS011;24826;52.070;20.970;2023-02-28T06:53:59;45.92;;;18.00;;
39074;SDS011;24826;52.070;20.970;2023-02-28T06:56:44;55.53;;;20.70;;
39074;SDS011;24826;52.070;20.970;2023-02-28T06:59:29;54.65;;;20.50;;
39074;SDS011;24826;52.070;20.970;2023-02-28T07:02:13;47.20;;;19.90;;
39074;SDS011;24826;52.070;20.970;2023-02-28T07:04:57;49.25;;;19.60;;
39074;SDS011;24826;52.070;20.970;2023-02-28T07:07:42;49.55;;;20.42;;
39074;SDS011;24826;52.070;20.970;2023-02-28T07:10:29;45.25;;;19.95;;
39074;SDS011;24826;52.070;20.970;2023-02-28T07:13:14;46.78;;;19.17;;
39074;SDS011;24826;52.070;20.970;2023-02-28T07:15:59;37.03;;;17.15;;
39074;SDS011;24826;52.070;20.970;2023-02-28T07:18:45;36.78;;;17.10;;
39074;SDS011;24826;52.070;20.970;2023-02-28T07:21:30;31.77;;;15.25;;
39074;SDS011;24826;52.070;20.970;2023-02-28T07:24:14;32.95;;;15.57;;
39074;SDS011;24826;52.070;20.970;2023-02-28T07:26:59;29.48;;;16.00;;
39074;SDS011;24826;52.070;20.970;2023-02-28T07:29:45;28.95;;;14.90;;
39074;SDS011;24826;52.070;20.970;2023-02-28T07:32:29;24.02;;;13.43;;
39074;SDS011;24826;52.070;20.970;2023-02-28T07:35:14;25.98;;;12.85;;
39074;SDS011;24826;52.070;20.970;2023-02-28T07:37:59;23.02;;;12.52;;
39074;SDS011;24826;52.070;20.970;2023-02-28T07:40:43;45.38;;;14.05;;
39074;SDS011;24826;52.070;20.970;2023-02-28T07:43:28;18.73;;;11.48;;
39074;SDS011;24826;52.070;20.970;2023-02-28T07:46:13;19.08;;;11.40;;
39074;SDS011;24826;52.070;20.970;2023-02-28T07:48:59;24.65;;;12.57;;
39074;SDS011;24826;52.070;20.970;2023-02-28T07:51:44;19.73;;;10.73;;
39074;SDS011;24826;52.070;20.970;2023-02-28T07:54:28;23.50;;;12.45;;
39074;SDS011;24826;52.070;20.970;2023-02-28T07:57:13;20.25;;;11.88;;
39074;SDS011;24826;52.070;20.970;2023-02-28T07:59:57;22.60;;;9.70;;
39074;SDS011;24826;52.070;20.970;2023-02-28T08:02:42;16.23;;;8.60;;
39074;SDS011;24826;52.070;20.970;2023-02-28T08:05:26;15.15;;;8.50;;
39074;SDS011;24826;52.070;20.970;2023-02-28T08:08:10;15.30;;;8.70;;
39074;SDS011;24826;52.070;20.970;2023-02-28T08:10:54;14.93;;;9.23;;
39074;SDS011;24826;52.070;20.970;2023-02-28T08:13:39;17.67;;;9.32;;
39074;SDS011;24826;52.070;20.970;2023-02-28T08:16:23;16.08;;;8.65;;
39074;SDS011;24826;52.070;20.970;2023-02-28T08:19:08;16.15;;;8.65;;
39074;SDS011;24826;52.070;20.970;2023-02-28T08:21:53;17.98;;;7.90;;
39074;SDS011;24826;52.070;20.970;2023-02-28T08:24:37;12.98;;;7.47;;
39074;SDS011;24826;52.070;20.970;2023-02-28T08:27:22;13.15;;;8.38;;
39074;SDS011;24826;52.070;20.970;2023-02-28T08:30:09;16.60;;;8.45;;
39074;SDS011;24826;52.070;20.970;2023-02-28T08:32:54;12.20;;;7.13;;
39074;SDS011;24826;52.070;20.970;2023-02-28T08:35:39;16.20;;;7.72;;
39074;SDS011;24826;52.070;20.970;2023-02-28T08:38:23;13.15;;;8.02;;
39074;SDS011;24826;52.070;20.970;2023-02-28T08:41:09;12.35;;;7.35;;
39074;SDS011;24826;52.070;20.970;2023-02-28T08:43:55;15.05;;;7.57;;
39074;SDS011;24826;52.070;20.970;2023-02-28T08:46:39;16.20;;;7.03;;
39074;SDS011;24826;52.070;20.970;2023-02-28T08:49:24;12.45;;;6.55;;
39074;SDS011;24826;52.070;20.970;2023-02-28T08:52:08;14.18;;;7.03;;
39074;SDS011;24826;52.070;20.970;2023-02-28T08:54:53;13.80;;;7.28;;
39074;SDS011;24826;52.070;20.970;2023-02-28T08:57:37;10.73;;;6.45;;
39074;SDS011;24826;52.070;20.970;2023-02-28T09:00:21;11.27;;;5.88;;
39074;SDS011;24826;52.070;20.970;2023-02-28T09:03:06;11.18;;;6.45;;
39074;SDS011;24826;52.070;20.970;2023-02-28T09:08:38;13.90;;;7.18;;
39074;SDS011;24826;52.070;20.970;2023-02-28T09:11:22;13.43;;;7.63;;
39074;SDS011;24826;52.070;20.970;2023-02-28T09:14:07;13.07;;;7.00;;
39074;SDS011;24826;52.070;20.970;2023-02-28T09:16:51;16.90;;;7.72;;
39074;SDS011;24826;52.070;20.970;2023-02-28T09:19:36;11.50;;;7.00;;
39074;SDS011;24826;52.070;20.970;2023-02-28T09:22:20;11.43;;;7.22;;
39074;SDS011;24826;52.070;20.970;2023-02-28T09:25:05;10.88;;;6.80;;
39074;SDS011;24826;52.070;20.970;2023-02-28T09:27:49;11.75;;;7.18;;
39074;SDS011;24826;52.070;20.970;2023-02-28T09:30:34;15.00;;;7.90;;
39074;SDS011;24826;52.070;20.970;2023-02-28T09:33:18;11.70;;;6.90;;
39074;SDS011;24826;52.070;20.970;2023-02-28T09:36:05;13.98;;;7.28;;
39074;SDS011;24826;52.070;20.970;2023-02-28T09:38:49;10.48;;;6.32;;
39074;SDS011;24826;52.070;20.970;2023-02-28T09:41:39;12.32;;;7.55;;
39074;SDS011;24826;52.070;20.970;2023-02-28T09:44:36;12.73;;;7.18;;
39074;SDS011;24826;52.070;20.970;2023-02-28T09:47:29;16.13;;;7.50;;
39074;SDS011;24826;52.070;20.970;2023-02-28T09:50:19;14.23;;;7.50;;
39074;SDS011;24826;52.070;20.970;2023-02-28T09:53:25;10.57;;;6.30;;
39074;SDS011;24826;52.070;20.970;2023-02-28T09:56:14;11.45;;;6.53;;
39074;SDS011;24826;52.070;20.970;2023-02-28T09:59:28;11.70;;;6.25;;
39074;SDS011;24826;52.070;20.970;2023-02-28T10:02:47;12.32;;;6.65;;
39074;SDS011;24826;52.070;20.970;2023-02-28T10:05:50;12.60;;;6.15;;
39074;SDS011;24826;52.070;20.970;2023-02-28T10:08:40;11.35;;;7.07;;
39074;SDS011;24826;52.070;20.970;2023-02-28T10:11:35;16.50;;;6.13;;
39074;SDS011;24826;52.070;20.970;2023-02-28T10:14:23;12.07;;;6.47;;
39074;SDS011;24826;52.070;20.970;2023-02-28T10:17:11;10.80;;;6.50;;
39074;SDS011;24826;52.070;20.970;2023-02-28T10:20:04;11.07;;;6.18;;
39074;SDS011;24826;52.070;20.970;2023-02-28T10:22:58;13.27;;;7.13;;
39074;SDS011;24826;52.070;20.970;2023-02-28T10:25:55;16.40;;;7.50;;
39074;SDS011;24826;52.070;20.970;2023-02-28T10:28:43;16.50;;;8.07;;
39074;SDS011;24826;52.070;20.970;2023-02-28T10:31:28;12.75;;;7.35;;
39074;SDS011;24826;52.070;20.970;2023-02-28T10:34:12;18.60;;;7.22;;
39074;SDS011;24826;52.070;20.970;2023-02-28T10:36:57;15.88;;;7.22;;
39074;SDS011;24826;52.070;20.970;2023-02-28T10:39:51;12.05;;;7.30;;
39074;SDS011;24826;52.070;20.970;2023-02-28T10:42:35;14.45;;;8.15;;
39074;SDS011;24826;52.070;20.970;2023-02-28T10:45:23;14.52;;;7.18;;
39074;SDS011;24826;52.070;20.970;2023-02-28T10:50:52;13.13;;;7.50;;
39074;SDS011;24826;52.070;20.970;2023-02-28T10:56:32;12.70;;;7.05;;
39074;SDS011;24826;52.070;20.970;2023-02-28T10:59:22;14.63;;;7.97;;
39074;SDS011;24826;52.070;20.970;2023-02-28T11:02:29;14.23;;;7.38;;
39074;SDS011;24826;52.070;20.970;2023-02-28T11:08:17;11.15;;;6.78;;
39074;SDS011;24826;52.070;20.970;2023-02-28T11:11:05;11.27;;;6.43;;
39074;SDS011;24826;52.070;20.970;2023-02-28T11:13:52;12.85;;;6.97;;
39074;SDS011;24826;52.070;20.970;2023-02-28T11:16:39;13.38;;;6.85;;
39074;SDS011;24826;52.070;20.970;2023-02-28T11:19:25;13.95;;;7.65;;
39074;SDS011;24826;52.070;20.970;2023-02-28T11:22:16;13.48;;;7.07;;
39074;SDS011;24826;52.070;20.970;2023-02-28T11:25:15;13.20;;;7.18;;
39074;SDS011;24826;52.070;20.970;2023-02-28T11:28:05;14.10;;;7.47;;
39074;SDS011;24826;52.070;20.970;2023-02-28T11:34:00;14.65;;;7.43;;
39074;SDS011;24826;52.070;20.970;2023-02-28T11:36:44;14.00;;;7.18;;
39074;SDS011;24826;52.070;20.970;2023-02-28T11:39:28;12.00;;;7.53;;
39074;SDS011;24826;52.070;20.970;2023-02-28T11:42:20;15.73;;;7.65;;
39074;SDS011;24826;52.070;20.970;2023-02-28T11:45:36;13.13;;;7.50;;
39074;SDS011;24826;52.070;20.970;2023-02-28T11:51:57;14.18;;;7.10;;
39074;SDS011;24826;52.070;20.970;2023-02-28T11:57:59;14.13;;;7.40;;
39074;SDS011;24826;52.070;20.970;2023-02-28T12:07:02;13.73;;;7.63;;
39074;SDS011;24826;52.070;20.970;2023-02-28T12:13:23;12.48;;;7.57;;
39074;SDS011;24826;52.070;20.970;2023-02-28T12:16:17;16.45;;;8.95;;
39074;SDS011;24826;52.070;20.970;2023-02-28T12:19:16;13.32;;;8.20;;
39074;SDS011;24826;52.070;20.970;2023-02-28T12:25:09;14.65;;;7.57;;
39074;SDS011;24826;52.070;20.970;2023-02-28T12:28:04;17.42;;;9.00;;
39074;SDS011;24826;52.070;20.970;2023-02-28T12:34:16;12.57;;;7.30;;
39074;SDS011;24826;52.070;20.970;2023-02-28T12:37:10;14.13;;;7.80;;
39074;SDS011;24826;52.070;20.970;2023-02-28T12:40:02;20.10;;;7.97;;
39074;SDS011;24826;52.070;20.970;2023-02-28T12:42:57;11.95;;;7.82;;
39074;SDS011;24826;52.070;20.970;2023-02-28T12:45:55;13.35;;;8.00;;
39074;SDS011;24826;52.070;20.970;2023-02-28T12:48:44;12.40;;;7.68;;
39074;SDS011;24826;52.070;20.970;2023-02-28T12:51:32;13.98;;;7.80;;
39074;SDS011;24826;52.070;20.970;2023-02-28T12:57:09;14.25;;;8.05;;
39074;SDS011;24826;52.070;20.970;2023-02-28T13:00:04;16.45;;;9.32;;
39074;SDS011;24826;52.070;20.970;2023-02-28T13:06:20;12.68;;;8.48;;
39074;SDS011;24826;52.070;20.970;2023-02-28T13:09:16;12.57;;;7.93;;
39074;SDS011;24826;52.070;20.970;2023-02-28T13:12:04;13.77;;;8.38;;
39074;SDS011;24826;52.070;20.970;2023-02-28T13:18:29;14.95;;;8.93;;
39074;SDS011;24826;52.070;20.970;2023-02-28T13:24:09;14.70;;;8.73;;
39074;SDS011;24826;52.070;20.970;2023-02-28T13:29:43;14.77;;;8.60;;
39074;SDS011;24826;52.070;20.970;2023-02-28T13:32:29;15.30;;;8.65;;
39074;SDS011;24826;52.070;20.970;2023-02-28T13:35:34;18.60;;;10.40;;
39074;SDS011;24826;52.070;20.970;2023-02-28T13:38:24;16.65;;;9.38;;
39074;SDS011;24826;52.070;20.970;2023-02-28T13:44:17;17.45;;;9.25;;
39074;SDS011;24826;52.070;20.970;2023-02-28T13:49:50;17.33;;;9.35;;
39074;SDS011;24826;52.070;20.970;2023-02-28T13:52:35;15.25;;;8.88;;
39074;SDS011;24826;52.070;20.970;2023-02-28T13:55:48;15.20;;;9.38;;
39074;SDS011;24826;52.070;20.970;2023-02-28T14:05:19;15.35;;;9.05;;
39074;SDS011;24826;52.070;20.970;2023-02-28T14:08:20;16.85;;;8.63;;
39074;SDS011;24826;52.070;20.970;2023-02-28T14:11:09;16.17;;;9.73;;
39074;SDS011;24826;52.070;20.970;2023-02-28T14:14:41;14.18;;;9.48;;
39074;SDS011;24826;52.070;20.970;2023-02-28T14:17:19;15.43;;;9.02;;
39074;SDS011;24826;52.070;20.970;2023-02-28T14:20:04;16.13;;;9.18;;
39074;SDS011;24826;52.070;20.970;2023-02-28T14:22:57;16.55;;;8.75;;
39074;SDS011;24826;52.070;20.970;2023-02-28T14:32:03;13.85;;;8.10;;
39074;SDS011;24826;52.070;20.970;2023-02-28T14:38:08;15.02;;;8.38;;
39074;SDS011;24826;52.070;20.970;2023-02-28T14:41:03;16.30;;;8.75;;
39074;SDS011;24826;52.070;20.970;2023-02-28T14:43:57;13.70;;;8.88;;
39074;SDS011;24826;52.070;20.970;2023-02-28T14:46:44;14.63;;;9.23;;
39074;SDS011;24826;52.070;20.970;2023-02-28T14:49:32;15.35;;;9.13;;
39074;SDS011;24826;52.070;20.970;2023-02-28T14:52:20;15.77;;;8.70;;
39074;SDS011;24826;52.070;20.970;2023-02-28T14:55:09;13.88;;;8.98;;
39074;SDS011;24826;52.070;20.970;2023-02-28T14:58:03;13.20;;;7.65;;
39074;SDS011;24826;52.070;20.970;2023-02-28T15:00:51;15.88;;;8.55;;
39074;SDS011;24826;52.070;20.970;2023-02-28T15:03:38;16.70;;;7.97;;
39074;SDS011;24826;52.070;20.970;2023-02-28T15:06:26;14.63;;;8.20;;
39074;SDS011;24826;52.070;20.970;2023-02-28T15:09:13;13.52;;;8.05;;
39074;SDS011;24826;52.070;20.970;2023-02-28T15:11:59;13.35;;;7.95;;
39074;SDS011;24826;52.070;20.970;2023-02-28T15:14:44;17.33;;;8.27;;
39074;SDS011;24826;52.070;20.970;2023-02-28T15:17:28;15.27;;;8.13;;
39074;SDS011;24826;52.070;20.970;2023-02-28T15:20:14;13.65;;;8.45;;
39074;SDS011;24826;52.070;20.970;2023-02-28T15:22:59;13.10;;;8.07;;
39074;SDS011;24826;52.070;20.970;2023-02-28T15:25:45;13.93;;;8.10;;
39074;SDS011;24826;52.070;20.970;2023-02-28T15:28:30;11.82;;;7.50;;
39074;SDS011;24826;52.070;20.970;2023-02-28T15:31:19;12.63;;;8.30;;
39074;SDS011;24826;52.070;20.970;2023-02-28T15:34:12;15.52;;;9.02;;
39074;SDS011;24826;52.070;20.970;2023-02-28T15:37:47;16.95;;;9.13;;
39074;SDS011;24826;52.070;20.970;2023-02-28T15:40:22;16.98;;;9.98;;
39074;SDS011;24826;52.070;20.970;2023-02-28T15:48:54;17.02;;;8.68;;
39074;SDS011;24826;52.070;20.970;2023-02-28T15:51:40;17.67;;;8.88;;
39074;SDS011;24826;52.070;20.970;2023-02-28T15:54:32;18.33;;;8.70;;
39074;SDS011;24826;52.070;20.970;2023-02-28T15:57:22;16.45;;;9.73;;
39074;SDS011;24826;52.070;20.970;2023-02-28T16:00:11;16.73;;;8.60;;
39074;SDS011;24826;52.070;20.970;2023-02-28T16:02:57;19.40;;;9.77;;
39074;SDS011;24826;52.070;20.970;2023-02-28T16:05:42;21.08;;;9.88;;
39074;SDS011;24826;52.070;20.970;2023-02-28T16:08:27;19.73;;;10.02;;
39074;SDS011;24826;52.070;20.970;2023-02-28T16:11:12;21.15;;;11.15;;
39074;SDS011;24826;52.070;20.970;2023-02-28T16:13:56;22.30;;;9.55;;
39074;SDS011;24826;52.070;20.970;2023-02-28T16:16:45;18.50;;;9.63;;
39074;SDS011;24826;52.070;20.970;2023-02-28T16:19:31;21.38;;;10.40;;
39074;SDS011;24826;52.070;20.970;2023-02-28T16:22:16;20.33;;;9.80;;
39074;SDS011;24826;52.070;20.970;2023-02-28T16:25:01;17.33;;;9.63;;
39074;SDS011;24826;52.070;20.970;2023-02-28T16:27:49;18.17;;;9.70;;
39074;SDS011;24826;52.070;20.970;2023-02-28T16:30:37;16.67;;;9.27;;
39074;SDS011;24826;52.070;20.970;2023-02-28T16:33:22;18.50;;;8.82;;
39074;SDS011;24826;52.070;20.970;2023-02-28T16:36:09;20.63;;;9.60;;
39074;SDS011;24826;52.070;20.970;2023-02-28T16:38:57;22.87;;;9.67;;
39074;SDS011;24826;52.070;20.970;2023-02-28T16:41:44;17.85;;;9.10;;
39074;SDS011;24826;52.070;20.970;2023-02-28T16:44:31;15.15;;;9.25;;
39074;SDS011;24826;52.070;20.970;2023-02-28T16:47:17;20.10;;;9.70;;
39074;SDS011;24826;52.070;20.970;2023-02-28T16:50:04;19.77;;;9.48;;
39074;SDS011;24826;52.070;20.970;2023-02-28T16:52:57;18.42;;;9.68;;
39074;SDS011;24826;52.070;20.970;2023-02-28T16:55:41;14.82;;;9.02;;
39074;SDS011;24826;52.070;20.970;2023-02-28T16:58:25;17.02;;;9.32;;
39074;SDS011;24826;52.070;20.970;2023-02-28T17:01:11;16.52;;;8.95;;
39074;SDS011;24826;52.070;20.970;2023-02-28T17:03:56;18.45;;;9.95;;
39074;SDS011;24826;52.070;20.970;2023-02-28T17:06:40;18.90;;;10.23;;
39074;SDS011;24826;52.070;20.970;2023-02-28T17:09:25;19.10;;;10.85;;
39074;SDS011;24826;52.070;20.970;2023-02-28T17:12:11;20.88;;;10.50;;
39074;SDS011;24826;52.070;20.970;2023-02-28T17:14:55;19.45;;;10.90;;
39074;SDS011;24826;52.070;20.970;2023-02-28T17:17:40;17.17;;;11.00;;
39074;SDS011;24826;52.070;20.970;2023-02-28T17:20:25;20.08;;;11.15;;
39074;SDS011;24826;52.070;20.970;2023-02-28T17:23:10;23.42;;;12.02;;
39074;SDS011;24826;52.070;20.970;2023-02-28T17:25:58;21.15;;;11.70;;
39074;SDS011;24826;52.070;20.970;2023-02-28T17:28:43;23.58;;;10.85;;
39074;SDS011;24826;52.070;20.970;2023-02-28T17:31:27;17.38;;;9.82;;
39074;SDS011;24826;52.070;20.970;2023-02-28T17:34:12;22.92;;;10.20;;
39074;SDS011;24826;52.070;20.970;2023-02-28T17:37:02;26.10;;;10.57;;
39074;SDS011;24826;52.070;20.970;2023-02-28T17:39:47;20.65;;;11.50;;
39074;SDS011;24826;52.070;20.970;2023-02-28T17:42:31;21.55;;;10.90;;
39074;SDS011;24826;52.070;20.970;2023-02-28T17:45:15;21.00;;;11.35;;
39074;SDS011;24826;52.070;20.970;2023-02-28T17:48:00;21.30;;;12.02;;
39074;SDS011;24826;52.070;20.970;2023-02-28T17:50:45;22.17;;;11.93;;
39074;SDS011;24826;52.070;20.970;2023-02-28T17:53:32;20.58;;;11.98;;
39074;SDS011;24826;52.070;20.970;2023-02-28T17:56:19;19.60;;;11.88;;
39074;SDS011;24826;52.070;20.970;2023-02-28T17:59:08;20.33;;;12.15;;
39074;SDS011;24826;52.070;20.970;2023-02-28T18:01:53;19.98;;;11.02;;
39074;SDS011;24826;52.070;20.970;2023-02-28T18:04:37;20.85;;;12.23;;
39074;SDS011;24826;52.070;20.970;2023-02-28T18:07:22;22.17;;;12.02;;
39074;SDS011;24826;52.070;20.970;2023-02-28T18:10:09;20.40;;;11.57;;